• Join FlightAware (Why Join?)
  • Login
  • US Flag 
01:04PM EST


 

Airport Tracker/Info


-or-


 

Live Flight TrackerFlight Track Log ✈ SWA1725 ✈ 12-May-2013 ✈ KSAN - KSFO

Flight Track Log - Related Links

Times and Time Zones

All times are in EDT time to prevent confusion due to time zone crossing. See the SWA1725 flight status page for this flight to view local times or setup timezone preferences in your user account.

Time Position Orientation Groundspeed Altitude Reporting Facility
EDT Latitude Longitude Course Direction KTS MPH feet Rate Location/Type
11:39AM 32.7436 -117.2194 310° West 162 186 1,200  Level Los Angeles Center
11:40AM 32.7747 -117.2778 302° West 200 230 3,500 2,460 Climbing Los Angeles Center
11:41AM 32.8153 -117.3578 301° West 264 304 6,300 3,300 Climbing Los Angeles Center
11:42AM 32.8603 -117.4392 303° West 289 333 10,300 3,360 Climbing Los Angeles Center
11:43AM 32.9206 -117.5217 311° West 335 386 13,200 3,240 Climbing Los Angeles Center
11:44AM 33.0044 -117.5883 326° Northwest 360 414 17,100 3,540 Climbing Los Angeles Center
11:45AM 33.0570 -117.6465 310° West  Level FlightAware Approximate
11:45AM 33.0772 -117.6758 315° West 375 432 20,500  Level Los Angeles Center
11:46AM 33.1444 -117.7783 308° West 390 449 23,000 2,400 Climbing Los Angeles Center
11:47AM 33.2144 -117.8847 308° West 403 464 25,500 2,220 Climbing Los Angeles Center
11:49AM 33.2903 -117.9922 310° West 419 482 27,600 2,040 Climbing Los Angeles Center
11:50AM 33.3850 -118.1278 310° West 440 506 29,800 1,860 Climbing Los Angeles Center
11:51AM 33.4506 -118.2211 310° West 451 519 31,500 2,340 Climbing Los Angeles Center
11:52AM 33.5442 -118.3600 309° West 445 512 34,700 2,520 Climbing Los Angeles Center
11:53AM 33.6222 -118.4708 310° West 430 495 36,800 1,800 Climbing Los Angeles Center
11:54AM 33.6989 -118.5811 310° West 425 489 38,400 1,380 Climbing Los Angeles Center
11:55AM 33.7739 -118.6889 310° West 416 479 39,700 720 Climbing Los Angeles Center
11:56AM 33.8325 -118.7750 309° West 415 478 40,000 120 Climbing Los Angeles Center
11:57AM 33.9203 -118.9042 309° West 413 475 40,000  Level Los Angeles Center
11:58AM 34.0086 -119.0322 310° West 414 476 40,000  Level Los Angeles Center
11:59AM 34.0956 -119.1603 309° West 412 474 40,000  Level Los Angeles Center
12:00PM 34.1692 -119.2678 310° West 415 478 40,000  Level Los Angeles Center
12:01PM 34.2408 -119.3750 309° West 413 475 40,000  Level Los Angeles Center
12:02PM 34.3144 -119.4842 309° West 417 480 40,000  Level Los Angeles Center
12:03PM 34.3883 -119.5928 310° West 418 481 40,000  Level Los Angeles Center
12:04PM 34.4603 -119.7028 308° West 418 481 40,000  Level Los Angeles Center
12:05PM 34.5372 -119.8067 312° West 415 478 40,000  Level Los Angeles Center
12:06PM 34.6333 -119.9053 320° Northwest 413 475 40,000  Level Los Angeles Center
12:07PM 34.7186 -119.9994 318° Northwest 414 476 40,000  Level Los Angeles Center
12:08PM 34.8147 -120.1036 318° Northwest 414 476 40,000  Level Los Angeles Center
12:10PM 34.9158 -120.2153 318° Northwest 415 478 40,000  Level Los Angeles Center
12:11PM 34.9994 -120.3078 318° Northwest 412 474 40,000  Level Los Angeles Center
12:12PM 35.0842 -120.4011 318° Northwest 417 480 40,000  Level Los Angeles Center
12:13PM 35.1836 -120.5133 317° Northwest 413 475 40,000  Level Los Angeles Center
12:14PM 35.2856 -120.6278 318° Northwest 413 475 40,000  Level Los Angeles Center
12:15PM 35.3686 -120.7197 318° Northwest 411 473 40,000  Level Los Angeles Center
12:15PM 35.4233 -120.7672 325° Northwest 410 472 40,000  Level Oakland Center
12:16PM 35.5156 -120.8481 325° Northwest 405 466 40,000  Level Oakland Center
12:17PM 35.6081 -120.9297 324° Northwest 407 468 40,000  Level Oakland Center
12:18PM 35.6997 -121.0117 324° Northwest 407 468 40,000 -600 Level Oakland Center
12:20PM 35.7911 -121.0939 324° Northwest 405 466 38,800 -1,740 Descending Oakland Center
12:21PM 35.8814 -121.1742 324° Northwest 402 463 36,500 -2,520 Descending Oakland Center
12:22PM 35.9939 -121.2761 324° Northwest 414 476 33,700 -2,460 Descending Oakland Center
12:23PM 36.0869 -121.3583 324° Northwest 414 476 31,600 -1,980 Descending Oakland Center
12:24PM 36.1750 -121.4406 323° Northwest 400 460 29,700 -1,860 Descending Oakland Center
12:25PM 36.2633 -121.5181 325° Northwest 392 451 27,800 -1,920 Descending Oakland Center
12:26PM 36.3508 -121.5983 324° Northwest 391 450 25,800 -1,920 Descending Oakland Center
12:27PM 36.4347 -121.6775 323° Northwest 381 438 23,900 -1,920 Descending Oakland Center
12:27PM 36.4833 -121.7333 317° Northwest 370 426 22,700 -1,800 Descending Northern Cal TRACON
12:28PM 36.5667 -121.8000 327° Northwest 358 412 21,100 -1,500 Descending Northern Cal TRACON
12:29PM 36.6500 -121.8667 327° Northwest 354 407 19,700 -1,500 Descending Northern Cal TRACON
12:30PM 36.7167 -121.9500 315° West 342 394 18,100 -1,740 Descending Northern Cal TRACON
12:31PM 36.8000 -121.9833 342° North 343 395 16,400 -1,800 Descending Northern Cal TRACON
12:32PM 36.9000 -122.0000 352° North 332 382 14,700 -1,620 Descending Northern Cal TRACON
12:33PM 36.9400 -122.0156 343° North 331 381 13,800 -1,620 Descending Oakland Center
12:34PM 37.0283 -122.0375 349° North 324 373 12,100 -1,620 Descending Oakland Center
12:35PM 37.1133 -122.0594 348° North 314 361 10,500 -1,320 Descending Oakland Center
12:36PM 37.2128 -122.0869 348° North 305 351 9,500 -1,380 Descending Oakland Center
12:37PM 37.2925 -122.1081 348° North 295 339 7,700 -1,860 Descending Oakland Center
12:38PM 37.3736 -122.1303 348° North 298 343 5,800 -1,680 Descending Oakland Center
12:39PM 37.4497 -122.1497 349° North 286 329 4,300 -1,320 Descending Oakland Center
12:40PM 37.5194 -122.1742 344° North 268 308 3,200 -1,020 Descending Oakland Center
12:41PM 37.5661 -122.2169 324° Northwest 233 268 2,300 -900 Descending Oakland Center
12:42PM 37.5867 -122.2700 296° West 192 221 1,400 -780 Descending Oakland Center
12:43PM 37.5914 -122.3119 278° West 149 171 800 -600 Descending Oakland Center
12:44PM 37.6069 -122.3489 298° West 129 148 200 -600 Descending Oakland Center
12:46PM 37.6167 -122.3667 322° Northwest  Level FlightAware Approximate
12:53PM 37.6191 -122.3752 322° Northwest  Level Estimated